createdAt,value
2022-08-28T00:00:42.044Z,3.63
2022-08-28T00:03:10.977Z,3.25
2022-08-28T00:05:39.755Z,4.85
2022-08-28T00:08:07.937Z,3.95
2022-08-28T00:10:35.349Z,3.00
2022-08-28T00:13:02.944Z,3.55
2022-08-28T00:15:33.556Z,3.20
2022-08-28T00:18:01.843Z,3.15
2022-08-28T00:20:29.440Z,3.50
2022-08-28T00:22:56.775Z,3.33
2022-08-28T00:25:26.467Z,3.65
2022-08-28T00:27:57.345Z,3.13
2022-08-28T00:30:31.186Z,3.20
2022-08-28T00:33:21.047Z,4.22
2022-08-28T00:35:49.461Z,3.05
2022-08-28T00:38:19.961Z,2.97
2022-08-28T00:40:49.653Z,2.70
2022-08-28T00:43:33.640Z,2.83
2022-08-28T00:46:03.603Z,2.80
2022-08-28T00:48:30.755Z,3.63
2022-08-28T00:51:16.234Z,3.05
2022-08-28T00:53:43.372Z,3.35
2022-08-28T00:56:13.308Z,3.30
2022-08-28T00:58:44.994Z,3.08
2022-08-28T01:01:13.295Z,3.25
2022-08-28T01:03:40.715Z,3.17
2022-08-28T01:06:08.305Z,2.83
2022-08-28T01:08:36.709Z,3.28
2022-08-28T01:11:06.252Z,2.53
2022-08-28T01:13:33.782Z,3.40
2022-08-28T01:16:03.761Z,3.40
2022-08-28T01:18:32.306Z,3.47
2022-08-28T01:21:22.002Z,3.70
2022-08-28T01:23:51.875Z,3.10
2022-08-28T01:26:19.186Z,3.03
2022-08-28T01:28:46.641Z,3.60
2022-08-28T01:31:14.701Z,3.45
2022-08-28T01:33:43.373Z,3.42
2022-08-28T01:36:12.367Z,2.92
2022-08-28T01:38:40.832Z,2.92
2022-08-28T01:41:08.164Z,2.85
2022-08-28T01:43:35.441Z,3.17
2022-08-28T01:46:05.195Z,4.32
2022-08-28T01:48:35.041Z,2.65
2022-08-28T01:51:02.835Z,3.80
2022-08-28T01:53:32.988Z,4.63
2022-08-28T01:56:02.681Z,4.22
2022-08-28T01:58:36.048Z,4.30
2022-08-28T02:01:09.759Z,4.05
2022-08-28T02:03:37.446Z,4.05
2022-08-28T02:06:05.071Z,5.57
2022-08-28T02:08:32.098Z,4.43
2022-08-28T02:10:59.068Z,4.05
2022-08-28T02:13:26.064Z,4.50
2022-08-28T02:15:53.114Z,4.35
2022-08-28T02:18:20.427Z,5.25
2022-08-28T02:20:47.282Z,4.50
2022-08-28T02:23:14.671Z,4.40
2022-08-28T02:25:42.176Z,5.30
2022-08-28T02:28:09.447Z,4.90
2022-08-28T02:30:38.548Z,5.65
2022-08-28T02:33:05.425Z,5.22
2022-08-28T02:35:32.693Z,4.57
2022-08-28T02:38:00.399Z,5.57
2022-08-28T02:40:28.129Z,5.50
2022-08-28T02:42:55.136Z,5.53
2022-08-28T02:45:22.822Z,6.70
2022-08-28T02:47:52.412Z,5.40
2022-08-28T02:52:49.953Z,4.68
2022-08-28T02:55:18.673Z,6.07
2022-08-28T02:57:46.863Z,4.95
2022-08-28T03:00:16.381Z,5.07
2022-08-28T03:05:13.673Z,4.88
2022-08-28T03:07:40.950Z,4.72
2022-08-28T03:10:10.090Z,5.13
2022-08-28T03:12:38.268Z,7.57
2022-08-28T03:15:07.550Z,5.43
2022-08-28T03:17:36.843Z,4.82
2022-08-28T03:20:09.470Z,5.32
2022-08-28T03:22:55.502Z,5.18
2022-08-28T03:25:22.714Z,5.30
2022-08-28T03:27:49.931Z,5.32
2022-08-28T03:30:17.669Z,4.85
2022-08-28T03:32:44.744Z,6.18
2022-08-28T03:35:12.340Z,5.43
2022-08-28T03:37:39.443Z,5.75
2022-08-28T03:40:08.463Z,5.70
2022-08-28T03:42:35.943Z,5.40
2022-08-28T03:45:05.322Z,5.15
2022-08-28T03:47:32.251Z,5.30
2022-08-28T03:49:59.458Z,5.47
2022-08-28T03:52:26.445Z,4.68
2022-08-28T03:54:53.335Z,5.63
2022-08-28T03:57:22.486Z,5.60
2022-08-28T03:59:51.850Z,6.22
2022-08-28T04:02:20.455Z,4.72
2022-08-28T04:04:49.312Z,5.63
2022-08-28T04:07:17.807Z,4.90
2022-08-28T04:09:45.060Z,4.90
2022-08-28T04:12:12.117Z,6.40
2022-08-28T04:14:39.260Z,5.35
2022-08-28T04:17:06.747Z,5.32
2022-08-28T04:19:34.330Z,5.47
2022-08-28T04:22:01.540Z,4.80
2022-08-28T04:24:28.735Z,4.65
2022-08-28T04:26:55.715Z,5.70
2022-08-28T04:29:23.251Z,5.10
2022-08-28T04:31:50.462Z,6.07
2022-08-28T04:34:18.028Z,6.40
2022-08-28T04:36:46.107Z,5.28
2022-08-28T04:39:13.458Z,6.18
2022-08-28T04:41:40.555Z,5.50
2022-08-28T04:44:08.677Z,6.25
2022-08-28T04:46:36.391Z,5.03
2022-08-28T04:49:04.422Z,6.10
2022-08-28T04:51:32.235Z,6.53
2022-08-28T04:54:01.458Z,5.95
2022-08-28T04:56:28.331Z,5.80
2022-08-28T04:58:55.227Z,5.57
2022-08-28T05:01:26.995Z,5.90
2022-08-28T05:03:59.961Z,5.63
2022-08-28T05:06:28.960Z,5.15
2022-08-28T05:08:58.170Z,5.55
2022-08-28T05:11:34.256Z,5.72
2022-08-28T05:14:15.880Z,6.20
2022-08-28T05:16:49.550Z,5.75
2022-08-28T05:19:18.771Z,6.80
2022-08-28T05:21:46.338Z,6.38
2022-08-28T05:24:13.937Z,5.53
2022-08-28T05:26:41.152Z,6.03
2022-08-28T05:29:09.943Z,5.82
2022-08-28T05:31:39.365Z,5.35
2022-08-28T05:36:36.355Z,5.75
2022-08-28T05:39:07.649Z,6.25
2022-08-28T05:41:35.116Z,5.93
2022-08-28T05:44:08.041Z,5.45
2022-08-28T05:46:37.792Z,5.05
2022-08-28T05:49:09.800Z,5.50
2022-08-28T05:51:40.171Z,5.68
2022-08-28T05:54:07.097Z,5.10
2022-08-28T05:56:37.397Z,5.80
2022-08-28T05:59:05.900Z,5.25
2022-08-28T06:01:35.055Z,5.22
2022-08-28T06:04:05.429Z,6.32
2022-08-28T06:06:35.002Z,4.68
2022-08-28T06:11:31.336Z,5.05
2022-08-28T06:14:01.728Z,4.63
2022-08-28T06:16:31.838Z,4.40
2022-08-28T06:19:00.335Z,4.75
2022-08-28T06:21:27.712Z,4.55
2022-08-28T06:23:54.922Z,4.55
2022-08-28T06:26:22.307Z,4.45
2022-08-28T06:28:49.215Z,4.90
2022-08-28T06:31:24.758Z,4.95
2022-08-28T06:33:58.351Z,4.03
2022-08-28T06:36:27.828Z,3.88
2022-08-28T06:41:27.360Z,4.70
2022-08-28T06:43:55.046Z,4.60
2022-08-28T06:46:22.454Z,3.47
2022-08-28T06:48:49.349Z,5.03
2022-08-28T06:51:16.767Z,2.95
2022-08-28T06:53:45.725Z,4.70
2022-08-28T06:56:25.751Z,3.58
2022-08-28T06:58:56.555Z,3.35
2022-08-28T07:01:29.932Z,3.28
2022-08-28T07:04:00.746Z,3.22
2022-08-28T07:06:30.463Z,4.50
2022-08-28T07:08:57.418Z,3.85
2022-08-28T07:11:30.164Z,2.65
2022-08-28T07:13:58.583Z,4.05
2022-08-28T07:16:29.853Z,3.58
2022-08-28T07:18:57.246Z,2.70
2022-08-28T07:21:24.519Z,3.20
2022-08-28T07:23:52.032Z,3.72
2022-08-28T07:26:22.603Z,3.08
2022-08-28T07:28:50.806Z,2.17
2022-08-28T07:31:20.668Z,2.38
2022-08-28T07:33:50.830Z,2.58
2022-08-28T07:36:29.915Z,2.10
2022-08-28T07:38:59.257Z,2.55
2022-08-28T07:41:31.871Z,2.13
2022-08-28T07:44:17.805Z,2.03
2022-08-28T07:46:45.697Z,2.25
2022-08-28T07:49:17.006Z,2.38
2022-08-28T07:51:46.979Z,2.10
2022-08-28T07:54:18.029Z,2.17
2022-08-28T07:56:46.532Z,2.63
2022-08-28T07:59:16.759Z,2.70
2022-08-28T08:01:46.964Z,1.98
2022-08-28T08:04:19.219Z,2.15
2022-08-28T08:06:46.896Z,1.95
2022-08-28T08:09:16.204Z,2.53
2022-08-28T08:11:43.865Z,1.98
2022-08-28T08:14:11.916Z,1.90
2022-08-28T08:16:41.746Z,2.10
2022-08-28T08:19:10.475Z,1.83
2022-08-28T08:21:38.051Z,1.92
2022-08-28T08:24:05.991Z,1.95
2022-08-28T08:26:33.729Z,1.55
2022-08-28T08:29:00.755Z,2.15
2022-08-28T08:31:30.169Z,1.83
2022-08-28T08:34:01.846Z,2.30
2022-08-28T08:36:30.437Z,2.30
2022-08-28T08:39:00.308Z,1.80
2022-08-28T08:41:51.459Z,2.30
2022-08-28T08:44:33.540Z,1.88
2022-08-28T08:47:28.243Z,2.10
2022-08-28T08:50:00.461Z,2.17
2022-08-28T08:52:38.108Z,1.73
2022-08-28T08:55:27.089Z,1.65
2022-08-28T08:58:11.292Z,1.83
2022-08-28T09:00:56.499Z,1.83
2022-08-28T09:03:44.419Z,2.20
2022-08-28T09:06:35.266Z,2.47
2022-08-28T09:09:07.075Z,1.85
2022-08-28T09:11:51.067Z,2.00
2022-08-28T09:14:33.546Z,2.00
2022-08-28T09:17:01.429Z,2.00
2022-08-28T09:19:29.409Z,1.77
2022-08-28T09:21:56.753Z,1.85
2022-08-28T09:24:28.316Z,1.38
2022-08-28T09:27:04.070Z,1.73
2022-08-28T09:29:42.935Z,1.73
2022-08-28T09:32:28.976Z,1.50
2022-08-28T09:35:08.997Z,1.38
2022-08-28T09:37:37.422Z,1.70
2022-08-28T09:40:22.900Z,1.73
2022-08-28T09:43:24.745Z,2.05
2022-08-28T09:46:05.717Z,1.75
2022-08-28T09:48:37.612Z,1.50
2022-08-28T09:51:12.049Z,1.42
2022-08-28T09:53:43.862Z,2.15
2022-08-28T09:56:33.528Z,1.60
2022-08-28T09:59:05.633Z,1.58
2022-08-28T10:01:44.923Z,1.65
2022-08-28T10:04:50.840Z,1.90
2022-08-28T10:07:26.535Z,1.63
2022-08-28T10:10:28.986Z,1.50
2022-08-28T10:13:41.214Z,1.38
2022-08-28T10:16:17.083Z,1.70
2022-08-28T10:18:55.527Z,1.48
2022-08-28T10:21:36.700Z,1.70
2022-08-28T10:24:12.661Z,1.50
2022-08-28T10:27:18.823Z,1.85
2022-08-28T10:29:54.630Z,1.45
2022-08-28T10:32:42.926Z,1.30
2022-08-28T10:35:32.738Z,1.77
2022-08-28T10:38:00.010Z,1.63
2022-08-28T10:40:30.874Z,1.50
2022-08-28T10:43:22.542Z,1.90
2022-08-28T10:45:51.694Z,1.50
2022-08-28T10:55:00.364Z,1.25
2022-08-28T10:57:49.506Z,1.50
2022-08-28T11:01:14.874Z,1.38
2022-08-28T11:16:47.799Z,1.23
2022-08-28T11:20:32.756Z,1.45
2022-08-28T11:23:32.788Z,1.30
2022-08-28T11:26:31.171Z,1.25
2022-08-28T11:29:10.968Z,1.30
2022-08-28T11:31:50.570Z,1.50
2022-08-28T11:38:15.618Z,1.30
2022-08-28T11:41:28.451Z,1.40
2022-08-28T11:44:35.552Z,1.25
2022-08-28T11:50:03.553Z,1.25
2022-08-28T11:53:07.346Z,2.10
2022-08-28T12:10:04.983Z,1.70
2022-08-28T12:23:50.675Z,1.55
2022-08-28T12:38:55.391Z,1.23
2022-08-28T12:41:39.212Z,1.50
2022-08-28T12:44:56.300Z,1.40
2022-08-28T12:47:39.639Z,1.30
2022-08-28T12:50:41.470Z,1.05
2022-08-28T12:53:33.424Z,1.58
2022-08-28T12:56:41.190Z,1.10
2022-08-28T13:00:01.318Z,1.45
2022-08-28T13:21:33.047Z,1.55
2022-08-28T13:24:29.367Z,1.37
2022-08-28T13:27:16.983Z,1.13
2022-08-28T13:31:06.924Z,1.45
2022-08-28T13:33:37.164Z,1.13
2022-08-28T13:36:21.890Z,1.70
2022-08-28T13:38:53.632Z,1.48
2022-08-28T13:41:36.196Z,1.33
2022-08-28T15:21:18.016Z,3.03
2022-08-28T16:32:58.740Z,1.52
2022-08-28T16:39:53.808Z,1.77
2022-08-28T17:02:21.335Z,1.88
2022-08-28T17:05:01.863Z,1.67
2022-08-28T17:07:41.096Z,1.58
2022-08-28T17:14:14.072Z,1.38
2022-08-28T17:17:13.587Z,1.70
2022-08-28T17:23:07.113Z,1.50
2022-08-28T17:26:10.917Z,1.90
2022-08-28T17:42:10.502Z,1.88
2022-08-28T19:00:07.736Z,1.75
